createdAt,value
2018-09-13T00:00:35.596Z,102360.52
2018-09-13T00:03:04.924Z,102357.34
2018-09-13T00:05:33.258Z,102356.02
2018-09-13T00:08:01.668Z,102356.02
2018-09-13T00:10:30.249Z,102358.50
2018-09-13T00:12:58.588Z,102356.47
2018-09-13T00:15:27.574Z,102355.14
2018-09-13T00:17:55.950Z,102351.66
2018-09-13T00:20:24.328Z,102349.98
2018-09-13T00:22:52.652Z,102349.64
2018-09-13T00:25:21.021Z,102343.14
2018-09-13T00:27:50.063Z,102332.45
2018-09-13T00:30:18.399Z,102333.80
2018-09-13T00:32:46.889Z,102334.29
2018-09-13T00:35:15.230Z,102337.46
2018-09-13T00:37:43.716Z,102337.98
2018-09-13T00:40:12.711Z,102340.47
2018-09-13T00:42:41.179Z,102332.11
2018-09-13T00:45:09.679Z,102331.31
2018-09-13T00:47:42.452Z,102328.80
2018-09-13T00:50:11.334Z,102331.80
2018-09-13T00:52:39.715Z,102325.13
2018-09-13T00:55:08.255Z,102325.96
2018-09-13T00:57:37.320Z,102325.81
2018-09-13T01:00:06.257Z,102329.82
2018-09-13T01:02:34.749Z,102319.62
2018-09-13T01:05:03.314Z,102319.44
2018-09-13T01:07:31.747Z,102330.31
2018-09-13T01:10:00.703Z,102324.97
2018-09-13T01:12:29.247Z,102330.47
2018-09-13T01:14:57.553Z,102329.67
2018-09-13T01:17:25.995Z,102332.19
2018-09-13T01:19:55.126Z,102337.00
2018-09-13T01:22:24.001Z,102338.34
2018-09-13T01:24:55.871Z,102341.85
2018-09-13T01:27:25.396Z,102343.38
2018-09-13T01:29:53.960Z,102343.38
2018-09-13T01:32:22.384Z,102339.36
2018-09-13T01:34:50.886Z,102338.03
2018-09-13T01:37:19.284Z,102335.02
2018-09-13T01:39:48.510Z,102332.34
2018-09-13T01:42:17.122Z,102337.69
2018-09-13T01:44:45.449Z,102342.19
2018-09-13T01:47:14.851Z,102340.02
2018-09-13T01:49:43.281Z,102338.68
2018-09-13T01:52:11.956Z,102349.06
2018-09-13T01:54:40.329Z,102336.84
2018-09-13T01:57:09.714Z,102337.34
2018-09-13T01:59:38.128Z,102330.51
2018-09-13T02:02:06.665Z,102325.66
2018-09-13T02:04:35.108Z,102326.66
2018-09-13T02:07:03.699Z,102329.17
2018-09-13T02:09:32.411Z,102334.17
2018-09-13T02:12:00.837Z,102327.00
2018-09-13T02:14:29.361Z,102330.51
2018-09-13T02:16:57.699Z,102331.34
2018-09-13T02:19:26.110Z,102337.00
2018-09-13T02:21:54.734Z,102338.18
2018-09-13T02:24:25.180Z,102327.98
2018-09-13T02:26:53.583Z,102329.33
2018-09-13T02:29:22.002Z,102329.33
2018-09-13T02:31:50.430Z,102322.64
2018-09-13T02:34:18.989Z,102317.64
2018-09-13T02:36:47.496Z,102314.13
2018-09-13T02:39:15.921Z,102310.62
2018-09-13T02:41:44.416Z,102314.78
2018-09-13T02:44:12.849Z,102315.27
2018-09-13T02:46:41.419Z,102316.61
2018-09-13T02:49:10.501Z,102315.27
2018-09-13T02:51:39.061Z,102310.58
2018-09-13T02:54:08.203Z,102314.94
2018-09-13T02:56:36.509Z,102311.27
2018-09-13T02:59:05.443Z,102309.92
2018-09-13T03:01:33.836Z,102309.92
2018-09-13T03:04:02.433Z,102319.59
2018-09-13T03:06:30.768Z,102319.59
2018-09-13T03:08:59.279Z,102316.61
2018-09-13T03:11:27.593Z,102316.27
2018-09-13T03:13:56.056Z,102317.11
2018-09-13T03:16:24.587Z,102315.62
2018-09-13T03:18:52.988Z,102314.28
2018-09-13T03:21:21.583Z,102311.27
2018-09-13T03:23:50.010Z,102312.60
2018-09-13T03:26:18.557Z,102308.78
2018-09-13T03:28:46.977Z,102305.77
2018-09-13T03:31:15.403Z,102309.62
2018-09-13T03:33:43.844Z,102304.28
2018-09-13T03:36:12.322Z,102298.59
2018-09-13T03:38:40.972Z,102302.11
2018-09-13T03:41:09.481Z,102301.77
2018-09-13T03:43:38.700Z,102304.78
2018-09-13T03:46:07.250Z,102303.59
2018-09-13T03:48:35.796Z,102302.60
2018-09-13T03:51:04.436Z,102296.42
2018-09-13T03:53:32.937Z,102297.25
2018-09-13T03:56:01.383Z,102301.08
2018-09-13T03:58:30.002Z,102304.09
2018-09-13T04:00:58.407Z,102305.08
2018-09-13T04:03:27.258Z,102304.78
2018-09-13T04:05:55.769Z,102299.92
2018-09-13T04:08:24.241Z,102307.95
2018-09-13T04:10:52.939Z,102301.45
2018-09-13T04:13:21.425Z,102306.27
2018-09-13T04:15:50.146Z,102306.61
2018-09-13T04:18:18.556Z,102310.28
2018-09-13T04:20:47.096Z,102310.12
2018-09-13T04:23:15.474Z,102305.46
2018-09-13T04:25:43.875Z,102304.44
2018-09-13T04:28:12.503Z,102311.11
2018-09-13T04:30:40.857Z,102308.14
2018-09-13T04:33:09.947Z,102305.46
2018-09-13T04:35:38.407Z,102306.80
2018-09-13T04:38:06.864Z,102304.63
2018-09-13T04:40:35.824Z,102294.93
2018-09-13T04:43:05.213Z,102296.45
2018-09-13T04:45:33.634Z,102294.28
2018-09-13T04:48:02.160Z,102296.11
2018-09-13T04:50:30.635Z,102298.29
2018-09-13T04:52:59.057Z,102302.30
2018-09-13T04:55:27.493Z,102299.12
2018-09-13T04:57:55.869Z,102293.63
2018-09-13T05:00:24.345Z,102286.11
2018-09-13T05:02:52.761Z,102295.13
2018-09-13T05:05:21.284Z,102293.14
2018-09-13T05:07:49.667Z,102297.98
2018-09-13T05:10:18.171Z,102294.13
2018-09-13T05:12:46.920Z,102297.49
2018-09-13T05:15:15.299Z,102296.66
2018-09-13T05:17:44.056Z,102301.84
2018-09-13T05:20:12.462Z,102295.02
2018-09-13T05:22:41.050Z,102292.03
2018-09-13T05:25:10.220Z,102290.35
2018-09-13T05:27:38.630Z,102291.88
2018-09-13T05:30:08.002Z,102292.69
2018-09-13T05:32:36.479Z,102288.67
2018-09-13T05:35:06.439Z,102295.88
2018-09-13T05:37:35.242Z,102298.86
2018-09-13T05:40:03.657Z,102305.89
2018-09-13T05:42:32.261Z,102300.85
2018-09-13T05:45:02.213Z,102305.05
2018-09-13T05:47:31.222Z,102305.84
2018-09-13T05:49:59.760Z,102310.02
2018-09-13T05:52:28.338Z,102305.84
2018-09-13T05:54:57.000Z,102311.84
2018-09-13T05:57:25.511Z,102317.34
2018-09-13T05:59:54.387Z,102316.66
2018-09-13T06:02:23.298Z,102317.00
2018-09-13T06:04:52.229Z,102312.80
2018-09-13T06:07:20.756Z,102314.81
2018-09-13T06:09:49.109Z,102315.63
2018-09-13T06:12:17.718Z,102317.11
2018-09-13T06:14:46.302Z,102315.62
2018-09-13T06:17:14.790Z,102318.25
2018-09-13T06:19:43.372Z,102317.91
2018-09-13T06:22:11.981Z,102319.23
2018-09-13T06:24:40.674Z,102319.39
2018-09-13T06:27:09.109Z,102322.36
2018-09-13T06:29:38.309Z,102325.52
2018-09-13T06:32:09.885Z,102326.35
2018-09-13T06:34:38.454Z,102330.17
2018-09-13T06:37:07.369Z,102334.52
2018-09-13T06:39:35.792Z,102337.66
2018-09-13T06:42:04.275Z,102338.14
2018-09-13T06:44:32.862Z,102338.94
2018-09-13T06:47:01.823Z,102336.75
2018-09-13T06:49:30.229Z,102342.56
2018-09-13T06:51:58.630Z,102342.70
2018-09-13T06:54:27.069Z,102342.86
2018-09-13T06:56:55.945Z,102355.22
2018-09-13T06:59:24.432Z,102351.02
2018-09-13T07:01:52.900Z,102352.35
2018-09-13T07:04:21.226Z,102350.47
2018-09-13T07:06:49.692Z,102350.12
2018-09-13T07:09:18.838Z,102346.09
2018-09-13T07:11:47.315Z,102351.20
2018-09-13T07:14:15.688Z,102350.34
2018-09-13T07:16:44.222Z,102348.60
2018-09-13T07:19:12.958Z,102345.55
2018-09-13T07:21:41.432Z,102351.34
2018-09-13T07:24:09.977Z,102347.77
2018-09-13T07:26:38.454Z,102352.95
2018-09-13T07:29:06.843Z,102348.75
2018-09-13T07:31:35.365Z,102354.89
2018-09-13T07:34:04.799Z,102352.33
2018-09-13T07:36:33.278Z,102360.98
2018-09-13T07:39:01.755Z,102359.06
2018-09-13T07:41:30.480Z,102361.35
2018-09-13T07:43:59.184Z,102360.29
2018-09-13T07:46:27.868Z,102365.42
2018-09-13T07:48:56.738Z,102364.16
2018-09-13T07:51:25.115Z,102365.61
2018-09-13T07:53:54.041Z,102371.05
2018-09-13T07:56:22.443Z,102362.91
2018-09-13T07:58:51.196Z,102362.61
2018-09-13T08:01:20.010Z,102362.07
2018-09-13T08:03:48.530Z,102357.98
2018-09-13T08:06:17.211Z,102367.00
2018-09-13T08:08:46.105Z,102370.45
2018-09-13T08:11:15.643Z,102376.61
2018-09-13T08:13:44.325Z,102369.34
2018-09-13T08:16:13.298Z,102363.86
2018-09-13T08:18:41.880Z,102363.00
2018-09-13T08:21:10.333Z,102362.77
2018-09-13T08:23:38.867Z,102355.31
2018-09-13T08:26:07.958Z,102366.11
2018-09-13T08:28:36.366Z,102365.51
2018-09-13T08:31:05.310Z,102371.17
2018-09-13T08:33:35.042Z,102370.02
2018-09-13T08:36:03.729Z,102377.63
2018-09-13T08:38:32.383Z,102373.88
2018-09-13T08:41:00.857Z,102382.05
2018-09-13T08:43:30.502Z,102385.27
2018-09-13T08:45:59.383Z,102390.68
2018-09-13T08:48:28.307Z,102387.25
2018-09-13T08:50:56.972Z,102388.52
2018-09-13T08:53:25.442Z,102390.52
2018-09-13T08:55:53.988Z,102392.13
2018-09-13T08:58:22.663Z,102393.59
2018-09-13T09:00:51.941Z,102390.73
2018-09-13T09:03:20.184Z,102393.82
2018-09-13T09:05:48.886Z,102394.47
2018-09-13T09:08:17.493Z,102392.08
2018-09-13T09:10:46.176Z,102394.05
2018-09-13T09:13:15.006Z,102392.56
2018-09-13T09:15:44.272Z,102390.78
2018-09-13T09:18:12.764Z,102389.98
2018-09-13T09:20:41.554Z,102386.99
2018-09-13T09:23:10.137Z,102381.75
2018-09-13T09:25:38.985Z,102382.42
2018-09-13T09:28:07.710Z,102387.77
2018-09-13T09:30:36.360Z,102386.92
2018-09-13T09:33:05.364Z,102395.57
2018-09-13T09:35:34.319Z,102391.77
2018-09-13T09:38:03.780Z,102390.92
2018-09-13T09:40:32.270Z,102389.00
2018-09-13T09:43:00.973Z,102387.13
2018-09-13T09:45:29.586Z,102386.50
2018-09-13T09:47:58.318Z,102377.53
2018-09-13T09:50:27.118Z,102379.89
2018-09-13T09:52:55.789Z,102379.74
2018-09-13T09:55:24.700Z,102384.11
2018-09-13T09:57:53.778Z,102380.48
2018-09-13T10:00:28.217Z,102383.27
2018-09-13T10:02:57.337Z,102374.52
2018-09-13T10:05:26.121Z,102376.30
2018-09-13T10:07:54.648Z,102381.20
2018-09-13T10:10:23.279Z,102377.20
2018-09-13T10:12:51.904Z,102371.81
2018-09-13T10:15:25.764Z,102374.76
2018-09-13T10:17:59.473Z,102370.58
2018-09-13T10:20:34.746Z,102361.59
2018-09-13T10:23:08.678Z,102364.02
2018-09-13T10:25:42.356Z,102360.72
2018-09-13T10:28:16.677Z,102356.91
2018-09-13T10:30:50.425Z,102357.53
2018-09-13T10:33:24.094Z,102359.42
2018-09-13T10:36:05.156Z,102349.48
2018-09-13T10:40:43.268Z,102349.23
2018-09-13T10:43:17.576Z,102351.22
2018-09-13T10:45:51.064Z,102347.25
2018-09-13T10:48:25.711Z,102339.78
2018-09-13T10:51:00.278Z,102343.33
2018-09-13T10:53:31.925Z,102341.88
2018-09-13T10:56:00.637Z,102346.17
2018-09-13T10:58:29.384Z,102345.27
2018-09-13T11:00:58.183Z,102349.02
2018-09-13T11:03:26.683Z,102351.28
2018-09-13T11:05:55.044Z,102354.80
2018-09-13T11:08:23.840Z,102346.44
2018-09-13T11:10:53.552Z,102351.27
2018-09-13T11:13:32.409Z,102349.94
2018-09-13T11:16:01.371Z,102347.16
2018-09-13T11:18:29.774Z,102344.28
2018-09-13T11:20:58.421Z,102341.66
2018-09-13T11:23:27.025Z,102341.44
2018-09-13T11:25:56.044Z,102344.05
2018-09-13T11:28:24.853Z,102343.34
2018-09-13T11:30:59.100Z,102343.97
2018-09-13T11:33:27.890Z,102335.70
2018-09-13T11:35:56.308Z,102330.16
2018-09-13T11:38:26.185Z,102331.41
2018-09-13T11:40:55.001Z,102331.22
2018-09-13T11:43:23.721Z,102324.95
2018-09-13T11:45:52.862Z,102327.73
2018-09-13T11:48:21.460Z,102329.13
2018-09-13T11:50:50.292Z,102331.03
2018-09-13T11:53:18.726Z,102321.33
2018-09-13T11:55:47.273Z,102330.56
2018-09-13T11:58:16.512Z,102324.83
2018-09-13T12:00:45.100Z,102319.74
2018-09-13T12:03:14.830Z,102321.34
2018-09-13T12:05:43.201Z,102313.67
2018-09-13T12:08:11.725Z,102312.31
2018-09-13T12:10:40.339Z,102314.70
2018-09-13T12:13:08.919Z,102307.34
2018-09-13T12:15:37.521Z,102304.78
2018-09-13T12:18:06.322Z,102305.34
2018-09-13T12:20:35.025Z,102310.72
2018-09-13T12:23:03.814Z,102308.09
2018-09-13T12:25:32.310Z,102307.05
2018-09-13T12:28:00.646Z,102304.09
2018-09-13T12:30:29.870Z,102303.70
2018-09-13T12:32:58.377Z,102294.27
2018-09-13T12:35:27.425Z,102300.77
2018-09-13T12:37:56.009Z,102309.13
2018-09-13T12:40:24.728Z,102307.70
2018-09-13T12:42:54.023Z,102302.73
2018-09-13T12:45:22.712Z,102299.27
2018-09-13T12:47:51.046Z,102296.09
2018-09-13T12:50:20.283Z,102288.34
2018-09-13T12:52:49.201Z,102285.05
2018-09-13T12:55:18.512Z,102289.70
2018-09-13T12:57:47.483Z,102283.41
2018-09-13T13:00:17.297Z,102278.52
2018-09-13T13:02:47.127Z,102276.89
2018-09-13T13:05:15.651Z,102273.80
2018-09-13T13:07:48.889Z,102276.98
2018-09-13T13:10:18.147Z,102271.28
2018-09-13T13:12:47.389Z,102272.61
2018-09-13T13:15:16.141Z,102262.77
2018-09-13T13:17:45.538Z,102264.88
2018-09-13T13:20:14.266Z,102267.22
2018-09-13T13:22:42.752Z,102267.63
2018-09-13T13:25:11.130Z,102261.94
2018-09-13T13:27:40.593Z,102263.05
2018-09-13T13:30:09.242Z,102257.13
2018-09-13T13:32:38.404Z,102253.97
2018-09-13T13:35:06.891Z,102253.14
2018-09-13T13:37:35.755Z,102255.75
2018-09-13T13:40:04.612Z,102244.86
2018-09-13T13:42:33.863Z,102244.41
2018-09-13T13:45:02.310Z,102246.60
2018-09-13T13:47:31.139Z,102249.63
2018-09-13T13:49:59.914Z,102241.02
2018-09-13T13:52:28.302Z,102243.06
2018-09-13T13:54:57.442Z,102240.88
2018-09-13T13:57:25.969Z,102233.77
2018-09-13T13:59:54.550Z,102232.58
2018-09-13T14:02:23.733Z,102233.00
2018-09-13T14:04:53.056Z,102229.56
2018-09-13T14:07:21.801Z,102234.66
2018-09-13T14:09:50.422Z,102226.55
2018-09-13T14:12:19.431Z,102232.91
2018-09-13T14:14:49.255Z,102222.71
2018-09-13T14:17:18.315Z,102225.03
2018-09-13T14:19:47.497Z,102222.63
2018-09-13T14:22:16.503Z,102223.16
2018-09-13T14:24:45.270Z,102214.45
2018-09-13T14:27:13.847Z,102217.16
2018-09-13T14:29:42.961Z,102214.69
2018-09-13T14:32:11.759Z,102217.40
2018-09-13T14:34:40.545Z,102218.34
2018-09-13T14:37:09.251Z,102206.64
2018-09-13T14:39:38.841Z,102212.09
2018-09-13T14:42:08.341Z,102207.16
2018-09-13T14:44:37.119Z,102206.50
2018-09-13T14:47:07.127Z,102209.66
2018-09-13T14:49:36.451Z,102218.31
2018-09-13T14:52:05.046Z,102215.66
2018-09-13T14:54:33.783Z,102211.78
2018-09-13T14:57:02.564Z,102207.51
2018-09-13T14:59:31.526Z,102200.27
2018-09-13T15:02:00.561Z,102204.45
2018-09-13T15:04:31.253Z,102204.34
2018-09-13T15:07:01.960Z,102209.32
2018-09-13T15:09:31.887Z,102211.52
2018-09-13T15:12:04.092Z,102207.75
2018-09-13T15:14:36.848Z,102204.80
2018-09-13T15:17:05.824Z,102197.83
2018-09-13T15:19:35.022Z,102206.31
2018-09-13T15:22:04.663Z,102198.92
2018-09-13T15:24:37.040Z,102195.37
2018-09-13T15:27:07.256Z,102192.48
2018-09-13T15:29:36.732Z,102187.72
2018-09-13T15:32:07.610Z,102181.80
2018-09-13T15:34:36.703Z,102181.09
2018-09-13T15:37:06.745Z,102179.48
2018-09-13T15:39:35.258Z,102179.29
2018-09-13T15:42:05.430Z,102184.34
2018-09-13T15:44:34.649Z,102178.34
2018-09-13T15:47:04.006Z,102182.37
2018-09-13T15:49:32.616Z,102173.71
2018-09-13T15:52:01.486Z,102181.19
2018-09-13T15:54:30.969Z,102182.70
2018-09-13T15:57:00.526Z,102184.62
2018-09-13T15:59:29.082Z,102181.70
2018-09-13T16:01:58.334Z,102182.41
2018-09-13T16:04:27.560Z,102181.98
2018-09-13T16:06:56.120Z,102182.55
2018-09-13T16:09:24.860Z,102184.03
2018-09-13T16:11:53.221Z,102182.67
2018-09-13T16:14:23.394Z,102180.69
2018-09-13T16:16:51.965Z,102175.91
2018-09-13T16:19:20.329Z,102181.09
2018-09-13T16:21:49.017Z,102183.88
2018-09-13T16:24:17.595Z,102182.30
2018-09-13T16:26:46.386Z,102186.51
2018-09-13T16:29:14.825Z,102183.56
2018-09-13T16:31:43.234Z,102180.73
2018-09-13T16:34:12.106Z,102186.56
2018-09-13T16:36:45.024Z,102179.55
2018-09-13T16:39:24.157Z,102181.77
2018-09-13T16:41:57.917Z,102178.89
2018-09-13T16:44:31.709Z,102180.44
2018-09-13T16:47:07.309Z,102180.38
2018-09-13T16:49:37.849Z,102181.23
2018-09-13T16:52:06.288Z,102181.97
2018-09-13T16:54:35.257Z,102186.73
2018-09-13T16:57:04.786Z,102186.53
2018-09-13T16:59:33.303Z,102187.17
2018-09-13T17:02:02.020Z,102185.91
2018-09-13T17:04:30.469Z,102190.48
2018-09-13T17:06:59.115Z,102193.88
2018-09-13T17:09:28.321Z,102193.06
2018-09-13T17:11:56.730Z,102195.77
2018-09-13T17:14:25.438Z,102195.86
2018-09-13T17:16:53.904Z,102190.78
2018-09-13T17:19:23.085Z,102194.89
2018-09-13T17:21:51.542Z,102201.70
2018-09-13T17:24:20.297Z,102204.39
2018-09-13T17:26:48.871Z,102204.50
2018-09-13T17:29:17.454Z,102200.55
2018-09-13T17:31:46.186Z,102206.45
2018-09-13T17:34:14.562Z,102202.20
2018-09-13T17:36:43.314Z,102201.98
2018-09-13T17:39:13.591Z,102193.08
2018-09-13T17:41:43.128Z,102193.38
2018-09-13T17:44:12.052Z,102194.80
2018-09-13T17:46:41.287Z,102201.80
2018-09-13T17:49:10.011Z,102186.91
2018-09-13T17:51:38.731Z,102195.25
2018-09-13T17:54:07.825Z,102196.59
2018-09-13T17:56:36.283Z,102196.04
2018-09-13T17:59:04.783Z,102195.70
2018-09-13T18:01:33.372Z,102192.42
2018-09-13T18:04:01.811Z,102193.66
2018-09-13T18:06:30.678Z,102200.77
2018-09-13T18:08:59.074Z,102198.89
2018-09-13T18:11:27.600Z,102201.47
2018-09-13T18:13:57.603Z,102203.70
2018-09-13T18:16:26.080Z,102205.53
2018-09-13T18:18:54.555Z,102201.78
2018-09-13T18:21:22.946Z,102204.34
2018-09-13T18:23:51.671Z,102208.14
2018-09-13T18:26:20.152Z,102204.77
2018-09-13T18:28:48.896Z,102204.20
2018-09-13T18:31:17.326Z,102200.98
2018-09-13T18:33:46.156Z,102210.81
2018-09-13T18:36:14.786Z,102213.97
2018-09-13T18:38:43.727Z,102213.39
2018-09-13T18:41:12.741Z,102215.83
2018-09-13T18:43:41.233Z,102225.02
2018-09-13T18:46:10.473Z,102230.30
2018-09-13T18:48:38.885Z,102235.28
2018-09-13T18:51:07.692Z,102238.09
2018-09-13T18:53:36.939Z,102235.86
2018-09-13T18:56:05.737Z,102238.99
2018-09-13T18:58:34.473Z,102247.58
2018-09-13T19:01:03.836Z,102247.02
2018-09-13T19:03:32.222Z,102255.30
2018-09-13T19:06:01.154Z,102258.72
2018-09-13T19:08:29.860Z,102255.27
2018-09-13T19:10:58.642Z,102252.33
2018-09-13T19:13:27.856Z,102256.25
2018-09-13T19:15:56.553Z,102261.17
2018-09-13T19:18:26.176Z,102260.90
2018-09-13T19:20:54.517Z,102257.11
2018-09-13T19:23:23.355Z,102257.01
2018-09-13T19:25:51.902Z,102261.89
2018-09-13T19:28:21.531Z,102266.14
2018-09-13T19:30:50.019Z,102264.19
2018-09-13T19:33:18.738Z,102271.95
2018-09-13T19:35:47.130Z,102274.67
2018-09-13T19:38:16.178Z,102272.36
2018-09-13T19:40:45.035Z,102270.41
2018-09-13T19:43:14.243Z,102274.92
2018-09-13T19:45:43.187Z,102274.28
2018-09-13T19:48:12.221Z,102271.47
2018-09-13T19:50:41.360Z,102273.86
2018-09-13T19:53:09.798Z,102275.92
2018-09-13T19:55:38.572Z,102272.31
2018-09-13T19:58:07.028Z,102275.84
2018-09-13T20:00:35.773Z,102274.41
2018-09-13T20:03:04.538Z,102266.10
2018-09-13T20:05:33.323Z,102271.17
2018-09-13T20:08:01.961Z,102276.23
2018-09-13T20:10:31.006Z,102279.75
2018-09-13T20:12:59.556Z,102276.78
2018-09-13T20:15:28.304Z,102272.79
2018-09-13T20:17:56.691Z,102279.86
2018-09-13T20:20:25.507Z,102282.05
2018-09-13T20:22:53.993Z,102281.75
2018-09-13T20:25:23.127Z,102281.73
2018-09-13T20:27:51.571Z,102276.91
2018-09-13T20:30:20.252Z,102279.44
2018-09-13T20:32:48.642Z,102284.98
2018-09-13T20:35:17.718Z,102282.52
2018-09-13T20:37:46.166Z,102277.71
2018-09-13T20:40:15.120Z,102285.92
2018-09-13T20:42:44.007Z,102281.30
2018-09-13T20:45:12.901Z,102280.16
2018-09-13T20:47:41.465Z,102280.85
2018-09-13T20:50:10.091Z,102283.41
2018-09-13T20:52:38.442Z,102285.58
2018-09-13T20:55:08.189Z,102280.23
2018-09-13T20:57:37.018Z,102278.75
2018-09-13T21:00:06.105Z,102278.59
2018-09-13T21:02:34.906Z,102282.97
2018-09-13T21:05:04.019Z,102277.97
2018-09-13T21:07:32.515Z,102280.14
2018-09-13T21:10:01.408Z,102280.98
2018-09-13T21:12:30.321Z,102280.85
2018-09-13T21:14:58.697Z,102286.38
2018-09-13T21:17:27.684Z,102280.72
2018-09-13T21:19:56.536Z,102284.06
2018-09-13T21:22:25.498Z,102283.41
2018-09-13T21:24:54.254Z,102289.09
2018-09-13T21:27:22.752Z,102284.09
2018-09-13T21:29:51.446Z,102286.41
2018-09-13T21:32:19.823Z,102281.41
2018-09-13T21:34:48.533Z,102290.09
2018-09-13T21:37:16.914Z,102280.75
2018-09-13T21:39:49.641Z,102281.59
2018-09-13T21:42:18.066Z,102276.91
2018-09-13T21:44:48.297Z,102281.09
2018-09-13T21:47:17.769Z,102287.11
2018-09-13T21:49:46.702Z,102287.94
2018-09-13T21:52:15.534Z,102285.77
2018-09-13T21:54:43.936Z,102282.78
2018-09-13T21:57:12.891Z,102282.44
2018-09-13T21:59:41.867Z,102279.27
2018-09-13T22:02:10.578Z,102284.59
